Time;durP1;ratioP1;P1;durP2;ratioP2;P2;SDS_P1;SDS_P2;PMS_P1;PMS_P2;Temp;Humidity;BMP_temperature;BMP_pressure;BME280_temperature;BME280_humidity;BME280_pressure;Samples;Min_cycle;Max_cycle;Signal;HPM_P1;HPM_P2
2022/05/19 00:00:35;;;;;;;15.08;6.85;;;;;;;7.99;77.68;100136.66;1727844;82;21589;-69
2022/05/19 00:03:02;;;;;;;19.62;7.67;;;;;;;7.95;77.83;100138.33;1726445;82;21033;-72
2022/05/19 00:05:32;;;;;;;14.10;7.72;;;;;;;7.95;77.85;100132.84;1725269;82;21132;-74
2022/05/19 00:08:02;;;;;;;12.07;7.10;;;;;;;7.91;77.84;100138.11;1726433;81;21489;-68
2022/05/19 00:10:30;;;;;;;14.60;7.37;;;;;;;7.86;77.99;100133.20;1701846;82;20996;-68
2022/05/19 00:12:58;;;;;;;13.98;6.20;;;;;;;7.85;78.36;100135.66;1687773;83;21015;-73
2022/05/19 00:15:29;;;;;;;12.43;6.03;;;;;;;7.86;78.32;100127.17;1679856;84;21072;-74
2022/05/19 00:17:57;;;;;;;17.52;6.97;;;;;;;7.91;78.61;100129.05;1672820;84;21032;-69
2022/05/19 00:20:23;;;;;;;12.68;6.72;;;;;;;7.98;78.39;100128.17;1671319;84;21097;-69
2022/05/19 00:22:52;;;;;;;14.10;7.62;;;;;;;8.01;78.17;100122.65;1676855;83;21130;-71
2022/05/19 00:25:23;;;;;;;13.22;6.75;;;;;;;8.04;77.89;100125.64;1722519;82;20998;-69
2022/05/19 00:27:51;;;;;;;14.68;6.97;;;;;;;8.03;77.76;100130.84;1722188;82;21045;-70
2022/05/19 00:30:18;;;;;;;14.95;8.05;;;;;;;8.04;77.66;100133.88;1726172;80;21050;-70
2022/05/19 00:32:48;;;;;;;14.73;7.28;;;;;;;8.01;77.25;100131.71;1677391;83;21310;-73
2022/05/19 00:35:16;;;;;;;14.45;6.92;;;;;;;7.91;77.27;100138.11;1685133;83;21514;-74
2022/05/19 00:37:47;;;;;;;14.45;7.03;;;;;;;7.85;77.18;100137.86;1683382;82;21159;-69
2022/05/19 00:40:16;;;;;;;16.90;7.83;;;;;;;7.73;77.23;100135.48;1687661;82;21147;-72
2022/05/19 00:42:44;;;;;;;14.93;8.38;;;;;;;7.63;77.55;100144.61;1728270;81;21032;-68
2022/05/19 00:45:19;;;;;;;18.12;8.78;;;;;;;7.59;77.83;100146.84;1724405;82;21110;-72
2022/05/19 00:47:54;;;;;;;15.80;8.53;;;;;;;7.52;77.93;100143.84;1724275;82;21284;-70
2022/05/19 00:50:33;;;;;;;15.23;7.12;;;;;;;7.48;78.10;100144.16;1732146;79;21044;-67
2022/05/19 00:53:07;;;;;;;17.52;7.55;;;;;;;7.45;78.19;100142.00;1727003;81;21076;-72
2022/05/19 00:55:42;;;;;;;19.62;8.05;;;;;;;7.45;78.27;100146.66;1722604;82;21580;-72
2022/05/19 00:58:17;;;;;;;13.20;7.53;;;;;;;7.39;78.28;100148.05;1668636;83;21278;-70
2022/05/19 01:00:47;;;;;;;17.23;7.20;;;;;;;7.34;78.57;100148.63;1680773;83;21168;-70
2022/05/19 01:03:17;;;;;;;14.30;7.42;;;;;;;7.30;78.69;100153.30;1656478;85;21152;-71
2022/05/19 01:05:51;;;;;;;12.50;7.35;;;;;;;7.28;78.86;100150.02;1667402;83;21024;-73
2022/05/19 01:08:38;;;;;;;17.57;7.60;;;;;;;7.25;78.90;100139.63;1639906;85;21099;-70
2022/05/19 01:11:07;;;;;;;15.48;7.97;;;;;;;7.26;79.15;100140.45;1684214;83;21102;-75
2022/05/19 01:13:37;;;;;;;18.17;7.83;;;;;;;7.22;79.09;100147.59;1676448;84;21063;-71
2022/05/19 01:16:05;;;;;;;17.77;8.05;;;;;;;7.22;79.55;100144.30;1669406;82;21517;-70
2022/05/19 01:18:33;;;;;;;13.80;6.90;;;;;;;7.30;79.49;100143.70;1650650;84;20999;-72
2022/05/19 01:21:00;;;;;;;12.03;6.70;;;;;;;7.32;79.20;100144.80;1651141;84;21117;-66
2022/05/19 01:23:51;;;;;;;16.50;7.33;;;;;;;7.39;79.50;100145.85;1647409;85;21155;-71
2022/05/19 01:26:35;;;;;;;15.60;7.75;;;;;;;7.45;79.08;100143.91;1690586;83;21128;-71
2022/05/19 01:29:08;;;;;;;19.92;8.58;;;;;;;7.47;78.96;100144.45;1657940;85;21263;-71
2022/05/19 01:31:55;;;;;;;14.98;7.78;;;;;;;7.48;78.60;100153.77;1678424;83;21067;-67
2022/05/19 01:34:24;;;;;;;13.22;7.87;;;;;;;7.47;78.59;100150.73;1679379;84;21092;-71
2022/05/19 01:36:54;;;;;;;18.62;8.55;;;;;;;7.45;78.53;100151.59;1677854;84;21794;-70
2022/05/19 01:39:29;;;;;;;14.10;7.50;;;;;;;7.45;78.42;100158.99;1725909;82;21048;-69
2022/05/19 01:42:39;;;;;;;14.43;7.67;;;;;;;7.39;78.15;100154.91;1725759;80;21072;-72
2022/05/19 01:45:38;;;;;;;19.27;8.98;;;;;;;7.40;78.30;100155.16;1723838;82;21151;-68
2022/05/19 01:48:18;;;;;;;17.48;9.38;;;;;;;7.32;78.11;100154.96;1686727;82;21029;-71
2022/05/19 01:51:01;;;;;;;26.48;9.93;;;;;;;7.24;78.26;100146.76;1724183;82;21480;-68
2022/05/19 01:53:58;;;;;;;29.60;9.63;;;;;;;7.20;78.47;100160.20;1722725;82;22058;-74
2022/05/19 01:56:42;;;;;;;15.40;8.63;;;;;;;7.16;78.37;100159.14;1721953;82;21530;-71
2022/05/19 01:59:17;;;;;;;15.98;8.05;;;;;;;7.09;78.32;100159.45;1723630;82;21045;-73
2022/05/19 02:01:55;;;;;;;15.68;8.50;;;;;;;7.02;78.62;100164.41;1723189;82;21084;-72
2022/05/19 02:04:28;;;;;;;16.50;8.93;;;;;;;7.08;79.22;100161.91;1728594;82;21731;-68
2022/05/19 02:07:01;;;;;;;21.37;9.75;;;;;;;7.14;79.01;100173.13;1700665;81;21140;-74
2022/05/19 02:09:32;;;;;;;17.87;7.92;;;;;;;7.21;78.93;100170.62;1725937;80;21006;-69
2022/05/19 02:12:01;;;;;;;17.40;8.78;;;;;;;7.20;78.67;100171.17;1723436;82;21037;-70
2022/05/19 02:14:42;;;;;;;22.70;8.33;;;;;;;7.19;78.64;100165.43;1725170;82;21010;-68
2022/05/19 02:17:11;;;;;;;20.70;8.70;;;;;;;7.23;78.80;100171.17;1719534;82;21165;-68
2022/05/19 02:19:47;;;;;;;12.10;7.97;;;;;;;7.30;78.68;100173.86;1724135;82;21120;-68
2022/05/19 02:22:19;;;;;;;12.68;6.40;;;;;;;7.32;78.21;100172.78;1727929;80;21684;-72
2022/05/19 02:24:53;;;;;;;14.73;8.23;;;;;;;7.34;78.10;100173.30;1728018;82;21056;-67
2022/05/19 02:27:45;;;;;;;14.40;7.33;;;;;;;7.32;77.80;100174.95;1727259;82;21069;-73
2022/05/19 02:30:15;;;;;;;15.38;7.95;;;;;;;7.32;77.86;100179.63;1726786;82;21435;-67
2022/05/19 02:32:42;;;;;;;15.60;7.10;;;;;;;7.30;77.60;100177.98;1702157;82;21176;-67
2022/05/19 02:35:10;;;;;;;20.55;8.53;;;;;;;7.27;77.61;100185.40;1729330;82;21037;-66
2022/05/19 02:37:42;;;;;;;16.65;8.63;;;;;;;7.27;77.61;100181.28;1709193;80;21028;-71
2022/05/19 02:40:17;;;;;;;16.15;8.50;;;;;;;7.22;77.23;100181.31;1726172;82;20990;-70
2022/05/19 02:42:46;;;;;;;16.80;8.53;;;;;;;7.18;77.56;100187.90;1724351;81;21259;-68
2022/05/19 02:45:15;;;;;;;17.32;7.95;;;;;;;7.17;77.54;100187.64;1727169;82;21112;-68
2022/05/19 02:47:42;;;;;;;15.48;7.35;;;;;;;7.18;77.57;100192.58;1721788;81;20998;-72
2022/05/19 02:50:09;;;;;;;16.70;8.53;;;;;;;7.22;77.56;100191.45;1725332;82;21128;-73
2022/05/19 02:52:41;;;;;;;18.65;7.80;;;;;;;7.25;77.45;100189.53;1725341;82;21076;-69
2022/05/19 02:55:09;;;;;;;14.13;7.83;;;;;;;7.25;77.37;100190.34;1673551;82;21484;-72
2022/05/19 02:57:36;;;;;;;16.37;8.33;;;;;;;7.25;77.29;100195.81;1725335;82;21034;-71
2022/05/19 03:00:09;;;;;;;15.48;8.55;;;;;;;7.25;77.49;100192.28;1725044;81;21010;-73
2022/05/19 03:02:36;;;;;;;;;;;;;;;7.26;77.50;100196.11;1728366;82;21624;-70
2022/05/19 03:05:09;;;;;;;20.50;8.30;;;;;;;7.26;77.50;100200.22;1721633;81;20142;-71
2022/05/19 03:07:38;;;;;;;28.17;9.63;;;;;;;7.29;77.74;100199.65;1701791;82;21042;-72
2022/05/19 03:10:06;;;;;;;24.15;9.93;;;;;;;7.27;77.45;100201.84;1680852;83;21025;-70
2022/05/19 03:12:36;;;;;;;24.47;11.28;;;;;;;7.18;77.65;100199.44;1675899;84;21054;-71
2022/05/19 03:15:04;;;;;;;19.85;10.98;;;;;;;7.11;78.04;100201.11;1681121;83;21547;-72
2022/05/19 03:17:35;;;;;;;26.48;10.78;;;;;;;7.07;78.26;100204.13;1673229;83;21025;-71
2022/05/19 03:20:07;;;;;;;21.20;9.05;;;;;;;7.03;78.65;100201.66;1654683;83;23890;-72
2022/05/19 03:22:34;;;;;;;26.90;10.38;;;;;;;6.98;79.05;100205.24;1694177;83;21032;-68
2022/05/19 03:25:03;;;;;;;28.00;11.20;;;;;;;6.99;79.24;100202.80;1685184;83;21091;-70
2022/05/19 03:27:30;;;;;;;23.00;11.30;;;;;;;7.03;79.45;100207.14;1668489;83;21524;-67
2022/05/19 03:29:58;;;;;;;32.38;11.78;;;;;;;7.08;79.47;100213.17;1665079;85;21544;-74
2022/05/19 03:32:25;;;;;;;27.20;13.10;;;;;;;7.14;79.56;100202.45;1692591;83;21522;-70
2022/05/19 03:34:52;;;;;;;26.20;12.23;;;;;;;7.17;79.56;100205.45;1703143;83;21065;-70
2022/05/19 03:37:22;;;;;;;23.73;11.22;;;;;;;7.23;79.61;100208.18;1686557;82;21000;-70
2022/05/19 03:39:48;;;;;;;29.48;13.25;;;;;;;7.27;79.53;100204.59;1669477;83;21025;-72
2022/05/19 03:42:16;;;;;;;24.00;11.35;;;;;;;7.35;79.49;100210.59;1691404;84;21487;-68
2022/05/19 03:44:44;;;;;;;21.60;11.25;;;;;;;7.38;79.38;100213.59;1664140;83;21165;-68
2022/05/19 03:47:14;;;;;;;26.02;11.78;;;;;;;7.46;79.30;100210.80;1722534;80;21061;-70
2022/05/19 03:49:41;;;;;;;23.38;11.15;;;;;;;7.51;79.41;100219.55;1726548;82;22393;-70
2022/05/19 03:52:09;;;;;;;24.70;11.22;;;;;;;7.57;79.25;100225.84;1728282;82;21584;-67
2022/05/19 03:54:37;;;;;;;20.48;10.95;;;;;;;7.64;79.33;100223.61;1725672;82;21195;-70
2022/05/19 03:57:06;;;;;;;23.85;12.18;;;;;;;7.71;79.19;100221.36;1725556;82;21597;-71
2022/05/19 03:59:33;;;;;;;33.28;12.40;;;;;;;7.78;79.02;100225.98;1723303;82;21503;-73
2022/05/19 04:02:06;;;;;;;30.62;11.28;;;;;;;7.86;78.78;100230.06;1656575;84;21494;-70
2022/05/19 04:04:36;;;;;;;20.02;10.93;;;;;;;7.93;78.52;100235.23;1655743;85;21001;-70
2022/05/19 04:07:02;;;;;;;21.25;10.25;;;;;;;8.00;78.40;100227.48;1721291;82;20975;-73
2022/05/19 04:09:31;;;;;;;22.87;9.88;;;;;;;8.06;78.04;100231.02;1723126;82;22210;-71
2022/05/19 04:11:59;;;;;;;21.50;10.05;;;;;;;8.15;77.56;100233.98;1722932;82;21012;-71
2022/05/19 04:14:29;;;;;;;20.88;10.98;;;;;;;8.22;77.40;100235.83;1732863;82;21483;-72
2022/05/19 04:16:57;;;;;;;21.93;10.23;;;;;;;8.30;77.33;100231.66;1725390;82;21037;-69
2022/05/19 04:19:25;;;;;;;20.62;10.35;;;;;;;8.37;77.03;100244.52;1659195;84;21038;-68
2022/05/19 04:21:57;;;;;;;26.63;12.70;;;;;;;8.46;76.92;100236.45;1688934;83;21121;-72
2022/05/19 04:24:26;;;;;;;31.00;12.50;;;;;;;8.55;76.31;100235.86;1687261;83;21085;-70
2022/05/19 04:26:54;;;;;;;27.10;11.35;;;;;;;8.63;75.87;100238.00;1686962;83;21581;-72
2022/05/19 04:29:21;;;;;;;19.25;11.22;;;;;;;8.69;75.47;100239.59;1687540;83;21530;-69
2022/05/19 04:31:49;;;;;;;22.15;10.28;;;;;;;8.78;75.20;100237.58;1683421;83;21090;-70
2022/05/19 04:34:16;;;;;;;21.20;10.63;;;;;;;8.84;74.58;100237.78;1686297;83;21557;-73
2022/05/19 04:36:46;;;;;;;24.10;11.48;;;;;;;8.93;74.47;100237.42;1685803;83;21011;-69
2022/05/19 04:39:16;;;;;;;24.02;11.97;;;;;;;9.01;74.34;100244.20;1675427;84;21055;-69
2022/05/19 04:41:43;;;;;;;23.35;10.98;;;;;;;9.08;74.11;100239.72;1676288;84;21172;-67
2022/05/19 04:44:09;;;;;;;23.07;11.35;;;;;;;9.16;73.85;100244.58;1677272;84;21052;-67
2022/05/19 04:46:36;;;;;;;25.80;11.12;;;;;;;9.23;73.50;100243.67;1683721;83;21467;-74
2022/05/19 04:49:03;;;;;;;24.55;10.43;;;;;;;9.33;73.64;100246.05;1692595;82;21043;-70
2022/05/19 04:51:31;;;;;;;20.25;11.15;;;;;;;9.44;73.33;100248.93;1674717;83;21094;-74
2022/05/19 04:54:00;;;;;;;22.77;12.03;;;;;;;9.52;72.98;100250.19;1671049;83;21006;-68
2022/05/19 04:56:30;;;;;;;24.98;11.83;;;;;;;9.62;72.84;100250.64;1683258;82;21515;-68
2022/05/19 04:58:58;;;;;;;32.05;11.97;;;;;;;9.70;72.34;100242.27;1679120;83;21134;-72
2022/05/19 05:01:27;;;;;;;28.40;12.93;;;;;;;9.79;72.09;100241.05;1684258;83;21223;-72
2022/05/19 05:03:54;;;;;;;21.30;11.68;;;;;;;9.86;72.24;100249.19;1684096;83;21137;-71
2022/05/19 05:06:20;;;;;;;28.15;11.33;;;;;;;9.96;72.50;100255.67;1693873;83;21097;-69
2022/05/19 05:08:47;;;;;;;28.80;11.30;;;;;;;10.05;71.14;100251.66;1729116;82;21095;-71
2022/05/19 05:11:16;;;;;;;25.43;12.35;;;;;;;10.15;71.37;100255.64;1738737;80;21158;-71
2022/05/19 05:13:45;;;;;;;30.02;11.80;;;;;;;10.24;71.07;100250.28;1731775;80;21548;-74
2022/05/19 05:16:16;;;;;;;31.68;13.70;;;;;;;10.30;70.50;100252.41;1730772;80;21094;-69
2022/05/19 05:18:43;;;;;;;27.87;13.50;;;;;;;10.39;70.12;100248.41;1726537;82;21028;-68
2022/05/19 05:21:16;;;;;;;34.70;13.60;;;;;;;10.47;70.06;100251.88;1734171;80;21058;-74
2022/05/19 05:23:44;;;;;;;24.43;11.78;;;;;;;10.56;69.79;100246.50;1739911;80;21084;-71
2022/05/19 05:26:12;;;;;;;26.85;12.93;;;;;;;10.65;69.38;100241.92;1730857;80;21096;-70
2022/05/19 05:28:45;;;;;;;27.70;12.85;;;;;;;10.76;69.44;100247.25;1721706;81;21065;-72
2022/05/19 05:31:12;;;;;;;35.15;13.68;;;;;;;10.84;69.40;100249.30;1726668;81;21038;-68
2022/05/19 05:33:41;;;;;;;32.25;15.13;;;;;;;10.95;69.44;100249.36;1659254;83;21105;-72
2022/05/19 05:36:08;;;;;;;34.03;13.78;;;;;;;11.05;69.10;100250.30;1683445;82;21831;-71
2022/05/19 05:38:36;;;;;;;27.13;12.60;;;;;;;11.14;68.82;100244.89;1689958;82;21023;-70
2022/05/19 05:41:06;;;;;;;34.55;14.43;;;;;;;11.23;67.91;100251.31;1700643;82;21177;-70
2022/05/19 05:43:35;;;;;;;32.20;14.47;;;;;;;11.27;66.45;100258.42;1688226;82;21050;-72
2022/05/19 05:46:10;;;;;;;38.63;15.03;;;;;;;11.32;66.74;100261.08;1646806;84;21095;-68
2022/05/19 05:48:38;;;;;;;26.05;12.70;;;;;;;11.39;66.88;100251.00;1736847;80;21212;-71
2022/05/19 05:51:10;;;;;;;32.60;13.05;;;;;;;11.49;67.24;100251.34;1737051;80;21054;-71
2022/05/19 05:53:40;;;;;;;;;;;;;;;11.59;66.65;100255.27;1737289;80;21415;-70
2022/05/19 05:56:09;;;;;;;32.08;12.85;;;;;;;11.69;66.83;100257.81;1725148;81;20530;-74
2022/05/19 05:58:39;;;;;;;26.95;13.68;;;;;;;11.79;66.71;100260.08;1733965;80;21057;-67
2022/05/19 06:01:11;;;;;;;29.72;13.50;;;;;;;11.91;65.92;100264.51;1749386;80;21027;-68
2022/05/19 06:03:42;;;;;;;27.22;12.18;;;;;;;12.00;65.69;100272.05;1747219;80;21094;-69
2022/05/19 06:06:11;;;;;;;25.37;11.57;;;;;;;12.09;66.43;100270.78;1740334;80;21030;-72
2022/05/19 06:08:41;;;;;;;26.95;11.55;;;;;;;12.21;66.56;100280.72;1718436;80;21093;-68
2022/05/19 06:11:10;;;;;;;24.02;11.22;;;;;;;12.31;64.39;100275.52;1744402;80;21035;-68
2022/05/19 06:13:36;;;;;;;23.38;10.25;;;;;;;12.36;62.73;100267.66;1727301;80;21029;-69
2022/05/19 06:16:03;;;;;;;20.55;10.08;;;;;;;12.41;61.93;100273.05;1732499;79;21640;-69
2022/05/19 06:18:34;;;;;;;22.37;8.98;;;;;;;12.47;61.33;100279.28;1740913;80;21077;-73
2022/05/19 06:21:06;;;;;;;18.50;11.40;;;;;;;12.54;62.52;100274.94;1733713;81;21048;-72
2022/05/19 06:23:33;;;;;;;22.45;10.48;;;;;;;12.68;62.16;100274.60;1729751;81;21058;-68
2022/05/19 06:26:00;;;;;;;26.68;10.40;;;;;;;12.79;62.57;100278.75;1725199;82;21173;-72
2022/05/19 06:28:27;;;;;;;24.67;11.45;;;;;;;12.91;62.80;100276.78;1726422;81;22144;-72
2022/05/19 06:30:54;;;;;;;20.45;11.03;;;;;;;13.02;61.58;100278.69;1722797;81;21085;-68
2022/05/19 06:33:23;;;;;;;24.30;9.35;;;;;;;13.12;60.92;100279.80;1732630;80;21057;-70
2022/05/19 06:35:54;;;;;;;19.15;8.63;;;;;;;13.24;61.09;100280.58;1717928;82;21198;-68
2022/05/19 06:38:29;;;;;;;16.30;6.97;;;;;;;13.35;61.21;100269.22;1727090;80;21095;-73
2022/05/19 06:43:51;;;;;;;16.07;7.03;;;;;;;13.63;60.39;100274.52;1730817;80;21061;-68
2022/05/19 06:46:20;;;;;;;11.08;5.60;;;;;;;13.74;60.61;100270.33;1727471;82;21077;-70
2022/05/19 06:48:48;;;;;;;12.85;6.10;;;;;;;13.86;60.38;100271.08;1717087;80;21068;-70
2022/05/19 06:51:14;;;;;;;12.90;5.90;;;;;;;13.99;59.21;100276.21;1735280;80;21244;-73
2022/05/19 06:53:45;;;;;;;14.93;7.08;;;;;;;14.11;58.77;100268.64;1745692;80;20973;-70
2022/05/19 06:56:16;;;;;;;12.63;6.22;;;;;;;14.19;58.70;100270.36;1725076;80;21054;-71
2022/05/19 06:58:46;;;;;;;20.32;6.55;;;;;;;14.29;58.93;100272.80;1723368;82;21545;-68
2022/05/19 07:01:12;;;;;;;15.90;6.17;;;;;;;14.40;58.06;100275.24;1723309;82;21574;-66
2022/05/19 07:03:41;;;;;;;15.48;5.58;;;;;;;14.43;58.78;100275.97;1723685;82;21766;-67
2022/05/19 07:06:34;;;;;;;;;;;;;;;;;;;;;
2022/05/19 07:08:57;;;;;;;12.00;4.53;;;;;;;14.45;55.66;100268.94;1714673;81;21101;-68
2022/05/19 07:11:25;;;;;;;8.65;3.60;;;;;;;14.47;55.48;100265.83;1734137;82;21201;-69
2022/05/19 07:13:59;;;;;;;14.33;5.87;;;;;;;14.54;55.48;100272.27;1728168;82;21053;-72
2022/05/19 07:16:25;;;;;;;10.15;4.10;;;;;;;14.67;54.37;100269.88;1730801;80;21205;-69
2022/05/19 07:21:52;;;;;;;4.25;2.50;;;;;;;14.82;54.92;100263.59;1735091;79;21608;-72
2022/05/19 07:24:35;;;;;;;7.20;3.00;;;;;;;14.95;53.24;100260.36;1737599;80;21006;-69
2022/05/19 07:27:04;;;;;;;5.78;3.02;;;;;;;15.09;51.41;100262.36;1736739;80;21025;-70
2022/05/19 07:29:30;;;;;;;4.12;1.98;;;;;;;15.22;52.08;100272.17;1719376;80;21105;-75
2022/05/19 07:32:00;;;;;;;7.30;2.50;;;;;;;15.32;51.56;100277.91;1721409;80;21029;-70
2022/05/19 07:34:32;;;;;;;6.47;2.33;;;;;;;15.40;50.70;100269.32;1730502;80;21167;-71
2022/05/19 07:37:01;;;;;;;9.88;3.42;;;;;;;15.47;50.38;100268.79;1704632;83;21039;-67
2022/05/19 07:39:28;;;;;;;6.50;2.92;;;;;;;15.54;51.27;100268.48;1669403;83;21117;-70
2022/05/19 07:42:00;;;;;;;13.35;5.15;;;;;;;15.62;51.33;100270.99;1698743;83;21111;-69
2022/05/19 07:44:29;;;;;;;9.40;3.60;;;;;;;15.69;51.21;100261.53;1665602;83;21046;-69
2022/05/19 07:46:58;;;;;;;9.50;3.25;;;;;;;15.80;51.57;100263.34;1725447;80;21514;-75
2022/05/19 07:49:37;;;;;;;7.22;3.00;;;;;;;15.91;50.64;100254.61;1728357;80;21062;-67
2022/05/19 07:52:08;;;;;;;8.00;4.08;;;;;;;15.98;50.10;100252.11;1686049;83;21079;-74
2022/05/19 07:54:35;;;;;;;8.10;3.30;;;;;;;16.00;50.10;100251.20;1685651;82;21774;-68
2022/05/19 07:57:04;;;;;;;7.70;2.70;;;;;;;16.04;50.26;100256.91;1683535;84;21536;-68
2022/05/19 07:59:35;;;;;;;8.35;3.52;;;;;;;16.10;47.18;100253.35;1671109;83;21087;-71
2022/05/19 08:02:05;;;;;;;10.23;3.77;;;;;;;16.10;46.61;100253.35;1679954;83;21208;-69
2022/05/19 08:04:34;;;;;;;6.78;3.83;;;;;;;16.04;48.60;100254.95;1690757;82;20988;-69
2022/05/19 08:07:04;;;;;;;15.32;4.72;;;;;;;16.09;47.10;100253.92;1683375;84;21597;-70
2022/05/19 08:17:57;;;;;;;19.02;7.65;;;;;;;16.41;48.05;100250.71;1727678;82;21547;-70
2022/05/19 08:20:23;;;;;;;15.03;7.53;;;;;;;16.53;48.25;100245.16;1725352;82;21083;-75
2022/05/19 08:22:51;;;;;;;16.60;7.10;;;;;;;16.61;47.77;100241.25;1726854;81;21442;-69
2022/05/19 08:25:25;;;;;;;16.20;7.17;;;;;;;16.65;48.01;100243.59;1721513;82;21052;-71
2022/05/19 08:27:51;;;;;;;17.02;7.22;;;;;;;16.71;48.28;100237.21;1728174;81;21176;-74
2022/05/19 08:30:18;;;;;;;13.65;4.95;;;;;;;16.78;48.84;100237.47;1723387;80;21534;-72
2022/05/19 08:32:50;;;;;;;8.38;4.35;;;;;;;16.86;47.92;100227.37;1722525;80;21494;-73
2022/05/19 08:35:24;;;;;;;10.88;5.08;;;;;;;16.87;48.14;100224.25;1726449;81;21458;-67
2022/05/19 08:37:52;;;;;;;18.90;7.85;;;;;;;16.93;48.34;100229.02;1727642;82;21045;-71
2022/05/19 08:40:20;;;;;;;15.35;6.85;;;;;;;17.04;47.77;100224.61;1677331;83;21522;-73
2022/05/19 08:42:52;;;;;;;12.37;5.28;;;;;;;17.12;48.26;100225.70;1685818;82;22257;-72
2022/05/19 08:45:39;;;;;;;7.17;3.45;;;;;;;17.17;47.24;100230.79;1709640;81;21054;-68
2022/05/19 08:48:15;;;;;;;4.55;2.67;;;;;;;17.23;47.88;100220.47;1680692;83;21039;-75
2022/05/19 08:50:56;;;;;;;6.22;2.75;;;;;;;17.28;47.63;100209.09;1642881;85;21022;-72
2022/05/19 08:53:30;;;;;;;8.38;2.65;;;;;;;17.37;46.82;100212.33;1672307;83;21022;-68
2022/05/19 08:56:14;;;;;;;6.47;3.25;;;;;;;17.40;45.94;100211.62;1723215;82;21064;-75
2022/05/19 08:59:10;;;;;;;9.65;3.62;;;;;;;17.45;46.81;100215.56;1715564;80;21109;-70
2022/05/19 09:01:55;;;;;;;9.20;3.90;;;;;;;17.42;44.87;100221.84;1724199;82;21030;-74
2022/05/19 09:04:53;;;;;;;17.23;3.02;;;;;;;17.44;44.45;100220.09;1725389;82;20994;-73
2022/05/19 09:11:03;;;;;;;3.05;2.00;;;;;;;17.51;45.34;100214.19;1687877;82;20995;-71
2022/05/19 09:13:54;;;;;;;6.50;2.10;;;;;;;17.63;45.50;100211.14;1727588;82;21113;-75
2022/05/19 09:16:30;;;;;;;7.37;2.62;;;;;;;17.71;45.74;100218.55;1724972;82;21081;-73
2022/05/19 09:19:06;;;;;;;3.10;1.82;;;;;;;17.81;44.92;100210.88;1722725;82;21096;-70
2022/05/19 09:21:36;;;;;;;5.28;2.72;;;;;;;17.90;45.71;100201.77;1718948;82;21168;-70
2022/05/19 09:24:05;;;;;;;6.37;1.67;;;;;;;17.98;43.46;100210.56;1720934;81;21044;-69
2022/05/19 09:26:46;;;;;;;6.78;2.17;;;;;;;18.01;43.10;100202.09;1725116;82;21061;-76
2022/05/19 09:29:17;;;;;;;5.90;2.72;;;;;;;18.06;44.16;100200.45;1725886;82;21605;-73
2022/05/19 09:31:56;;;;;;;5.55;1.80;;;;;;;18.15;44.17;100197.50;1722866;80;21537;-70
2022/05/19 09:34:28;;;;;;;9.53;2.58;;;;;;;18.24;43.46;100196.78;1662971;84;21589;-72
2022/05/19 09:37:07;;;;;;;3.83;2.27;;;;;;;18.27;41.00;100200.82;1675004;83;21069;-70
2022/05/19 09:39:46;;;;;;;10.40;3.92;;;;;;;18.20;42.25;100196.46;1673298;83;21189;-70
2022/05/19 09:42:17;;;;;;;11.08;2.80;;;;;;;18.13;40.91;100192.29;1683019;84;21110;-74
2022/05/19 09:44:51;;;;;;;5.50;2.20;;;;;;;18.11;41.72;100191.83;1739114;80;21018;-72
2022/05/19 09:47:32;;;;;;;4.37;2.45;;;;;;;18.20;42.06;100183.31;1692819;83;21376;-68
2022/05/19 09:50:27;;;;;;;11.47;3.37;;;;;;;18.28;42.72;100187.13;1669431;84;21109;-74
2022/05/19 09:53:07;;;;;;;6.78;2.50;;;;;;;18.43;40.82;100191.10;1669498;84;21845;-72
2022/05/19 09:55:46;;;;;;;6.20;2.60;;;;;;;18.49;42.01;100180.50;1668823;84;21060;-70
2022/05/19 09:58:15;;;;;;;5.70;2.55;;;;;;;18.57;42.09;100178.70;1672730;83;21069;-71
2022/05/19 10:00:45;;;;;;;15.30;3.62;;;;;;;18.68;42.18;100171.41;1675495;83;21070;-72
2022/05/19 10:03:36;;;;;;;9.35;3.22;;;;;;;18.76;40.42;100170.19;1689504;83;21157;-72
2022/05/19 10:06:06;;;;;;;5.72;2.80;;;;;;;18.73;39.68;100175.32;1675252;84;21844;-74
2022/05/19 10:08:39;;;;;;;7.45;2.40;;;;;;;18.68;39.03;100178.38;1641337;84;21080;-73
2022/05/19 10:11:21;;;;;;;5.75;2.55;;;;;;;18.71;39.67;100181.05;1668277;84;21059;-69
2022/05/19 10:13:53;;;;;;;6.55;2.62;;;;;;;18.72;38.91;100173.71;1672674;83;21115;-71
2022/05/19 10:16:56;;;;;;;12.10;3.42;;;;;;;18.68;39.55;100165.81;1674289;83;21553;-67
2022/05/19 10:19:33;;;;;;;6.65;2.52;;;;;;;18.73;39.75;100159.97;1650075;84;21160;-73
2022/05/19 10:22:31;;;;;;;5.30;2.55;;;;;;;18.92;40.33;100157.64;1666591;82;21037;-73
2022/05/19 10:25:28;;;;;;;4.50;2.40;;;;;;;19.04;40.40;100160.91;1677529;84;21017;-73
2022/05/19 10:31:27;;;;;;;7.35;2.90;;;;;;;19.20;38.12;100154.73;1692741;82;21563;-71
2022/05/19 10:34:39;;;;;;;8.58;3.10;;;;;;;19.13;39.49;100144.78;1682342;83;21242;-73
2022/05/19 10:37:23;;;;;;;13.75;2.83;;;;;;;19.15;39.46;100150.00;1683803;82;21048;-68
2022/05/19 10:40:15;;;;;;;5.20;2.52;;;;;;;19.19;39.66;100148.11;1671438;82;21011;-72
2022/05/19 10:43:16;;;;;;;4.65;2.50;;;;;;;19.19;39.16;100150.30;1687005;83;21091;-72
2022/05/19 10:45:50;;;;;;;3.75;2.70;;;;;;;19.15;38.98;100138.83;1672216;83;21630;-70
2022/05/19 10:49:03;;;;;;;6.70;1.90;;;;;;;19.15;39.77;100133.25;1683960;82;21077;-72
2022/05/19 10:52:15;;;;;;;6.10;2.27;;;;;;;19.26;39.84;100136.30;1696343;81;21106;-68
2022/05/19 10:55:19;;;;;;;8.08;2.10;;;;;;;19.41;37.81;100138.81;1702198;81;21749;-69
2022/05/19 10:58:06;;;;;;;4.00;1.80;;;;;;;19.44;37.89;100136.67;1730939;80;21103;-71
2022/05/19 11:01:15;;;;;;;6.72;2.05;;;;;;;19.51;37.84;100131.83;1740567;80;21083;-71
2022/05/19 11:04:20;;;;;;;4.80;2.42;;;;;;;19.63;36.90;100124.70;1724969;80;22184;-69
2022/05/19 11:07:12;;;;;;;5.95;2.40;;;;;;;19.68;37.74;100121.62;1590585;87;21289;-69
2022/05/19 11:24:03;;;;;;;2.67;1.42;;;;;;;20.61;34.90;100113.11;1863192;76;23304;-63
2022/05/19 11:26:42;;;;;;;4.22;1.80;;;;;;;20.66;35.77;100107.78;1812159;78;20984;-62
2022/05/19 11:29:46;;;;;;;3.00;1.50;;;;;;;20.67;34.54;100108.83;1823434;77;21101;-64
2022/05/19 11:32:24;;;;;;;2.80;1.62;;;;;;;20.67;34.52;100099.03;1826991;77;20984;-64
2022/05/19 11:35:03;;;;;;;5.03;2.12;;;;;;;20.64;32.37;100105.36;1822605;77;20989;-64
2022/05/19 11:37:37;;;;;;;3.72;2.33;;;;;;;20.41;32.63;100093.61;1822794;78;21013;-65
2022/05/19 11:40:32;;;;;;;7.00;1.87;;;;;;;20.24;32.76;100098.30;1833522;78;21006;-65
2022/05/19 11:43:27;;;;;;;4.15;1.62;;;;;;;20.08;33.07;100094.23;1826063;77;21987;-64
2022/05/19 11:46:22;;;;;;;9.30;1.82;;;;;;;20.10;33.20;100095.46;1823931;78;21019;-63
2022/05/19 11:55:12;;;;;;;7.10;1.47;;;;;;;20.31;33.98;100079.66;1830850;77;21035;-64
2022/05/19 11:55:16;;;;;;;7.37;1.72;;;;;;;20.34;33.43;100073.89;1830275;77;21036;-65
2022/05/19 11:58:00;;;;;;;7.28;1.67;;;;;;;20.35;33.55;100069.12;1828414;77;21443;-64
2022/05/19 12:00:29;;;;;;;3.17;1.60;;;;;;;20.41;34.26;100076.82;1828968;77;21688;-64
2022/05/19 12:03:18;;;;;;;3.05;1.42;;;;;;;20.51;35.50;100074.56;1829683;77;21026;-65
2022/05/19 12:06:06;;;;;;;7.95;1.75;;;;;;;20.57;35.04;100077.28;1828640;77;21537;-65
2022/05/19 12:08:38;;;;;;;4.28;1.52;;;;;;;20.64;34.13;100071.77;1810938;78;20980;-62
2022/05/19 12:11:37;;;;;;;4.00;1.27;;;;;;;20.58;34.13;100068.27;1810318;78;21708;-65
2022/05/19 12:14:31;;;;;;;3.62;1.37;;;;;;;20.52;34.87;100070.59;1802073;78;21056;-63
2022/05/19 12:17:09;;;;;;;2.30;1.07;;;;;;;20.47;34.58;100074.50;1803487;78;20984;-63
2022/05/19 12:19:51;;;;;;;10.25;1.10;;;;;;;20.41;34.74;100068.42;1797320;78;21539;-64
2022/05/19 12:22:25;;;;;;;2.50;1.20;;;;;;;20.37;35.62;100066.15;1793735;79;20967;-65
2022/05/19 12:24:58;;;;;;;2.30;0.95;;;;;;;20.30;35.74;100059.06;1793654;79;21146;-64
2022/05/19 12:27:38;;;;;;;3.77;1.12;;;;;;;20.16;35.15;100057.60;1789676;79;21041;-65
2022/05/19 12:33:17;;;;;;;1.98;1.30;;;;;;;20.06;34.77;100056.85;1793526;79;21030;-65
2022/05/19 12:35:49;;;;;;;;;;;;;;;19.96;34.19;100048.44;1802415;79;21007;-63